Bosporus — V2QY — position and weather

sailwx.info

Track history (hours):
 
Tides and Currents Weather Stations Pressure Air Temp Water Temp Dewpoint Dewpoint Depression Visibility Wind Speed Wind Dir Waves Ship Positions

Bosporus

Last reported at 2015-Jul-29 02:29 UTC. Time now 2015-Jul-29 02:39 UTC.
Position N 43°26' E 004°53'.

Length 100 m; draft 4.2 m.

Type: Cargo ship. MMSI: 304010802.

Date/timePositionNaut miles runAvg speedWind from/ knotsBaromVisibWave heightAir tempDewpointWater temp
2015-Jul-29 02:29N 43°26' E 004°53'0 0.0
2015-Jul-29 01:32N 43°26' E 004°53'0 0.0
2015-Jul-29 00:32N 43°26' E 004°53'0 0.0
2015-Jul-28 23:29N 43°26' E 004°53'0 0.0
2015-Jul-28 22:32N 43°26' E 004°53'0 0.0
2015-Jul-28 21:23N 43°26' E 004°53'0 0.0
2015-Jul-28 20:17N 43°26' E 004°53'0 0.0
2015-Jul-28 19:29N 43°26' E 004°53'0 0.0
2015-Jul-28 18:30N 43°26' E 004°53'0 0.0
2015-Jul-28 17:32N 43°26' E 004°53'0 0.0
2015-Jul-28 16:32N 43°26' E 004°53'0 0.0
2015-Jul-28 15:26N 43°26' E 004°53'0 0.0
2015-Jul-28 14:29N 43°26' E 004°53'0 0.0
2015-Jul-28 13:32N 43°26' E 004°53'0 0.0
2015-Jul-28 12:32N 43°26' E 004°53'0 0.0
2015-Jul-28 11:32N 43°26' E 004°53'0 0.0
2015-Jul-28 10:29N 43°26' E 004°53'0 0.0
2015-Jul-28 09:33N 43°26' E 004°53'7 7.4
2015-Jul-28 08:33N 43°19' E 004°59'7 6.7
2015-Jul-28 07:33N 43°15' E 004°51'10 9.6
2015-Jul-28 06:33N 43°13' E 004°38'1010.1
2015-Jul-28 05:32N 43°10' E 004°25'  
2015-Jul-25 05:29N 43°11' E 004°28'8 9.1
2015-Jul-25 04:33N 43°14' E 004°39'9 9.2
2015-Jul-25 03:34N 43°16' E 004°51'8 7.9
2015-Jul-25 02:33N 43°24' E 004°54'2 1.5
2015-Jul-25 01:26N 43°26' E 004°53'0 0.0
2015-Jul-25 00:29N 43°26' E 004°53'0 0.0
2015-Jul-24 23:32N 43°26' E 004°53'0 0.0
2015-Jul-24 22:26N 43°26' E 004°53'0 0.0
2015-Jul-24 21:32N 43°26' E 004°53'0 0.0
2015-Jul-24 20:26N 43°26' E 004°53'0 0.0
2015-Jul-24 19:33N 43°26' E 004°53'0 0.0
2015-Jul-24 17:16N 43°26' E 004°53'0 0.0
2015-Jul-24 16:31N 43°26' E 004°53'0 0.0
2015-Jul-24 15:31N 43°26' E 004°53'0 0.0
2015-Jul-24 14:28N 43°26' E 004°53'0 0.0
2015-Jul-24 13:28N 43°26' E 004°53'0 0.0
2015-Jul-24 12:31N 43°26' E 004°53'0 0.0
2015-Jul-24 11:31N 43°26' E 004°53'0 0.0
2015-Jul-24 10:28N 43°26' E 004°53'0 0.0
2015-Jul-24 09:31N 43°26' E 004°53'0 0.0
2015-Jul-24 08:28N 43°26' E 004°53'0 0.0
2015-Jul-24 07:31N 43°26' E 004°53'0 0.0
2015-Jul-24 06:31N 43°26' E 004°53'0 0.0
2015-Jul-24 05:31N 43°26' E 004°53'0 0.0
2015-Jul-24 04:31N 43°26' E 004°53'0 0.0
2015-Jul-24 03:28N 43°26' E 004°53'0 0.0
2015-Jul-24 02:28N 43°26' E 004°53'0 0.0
2015-Jul-24 01:28N 43°26' E 004°53'0 0.0
2015-Jul-24 00:16N 43°26' E 004°53'0 0.0
2015-Jul-23 23:28N 43°26' E 004°53'0 0.0
2015-Jul-23 22:31N 43°26' E 004°53'0 0.0
2015-Jul-23 21:28N 43°26' E 004°53'0 0.0
2015-Jul-23 20:33N 43°26' E 004°53'0 0.0
2015-Jul-23 19:33N 43°26' E 004°53'0 0.0
2015-Jul-23 18:33N 43°26' E 004°53'0 0.0
2015-Jul-23 17:32N 43°26' E 004°53'0 0.0
2015-Jul-23 16:20N 43°26' E 004°53'0 0.0
2015-Jul-23 15:32N 43°26' E 004°53'0 0.0
2015-Jul-23 14:32N 43°26' E 004°53'0 0.0
2015-Jul-23 13:32N 43°26' E 004°53'0 0.0
2015-Jul-23 12:29N 43°26' E 004°53'0 0.0
2015-Jul-23 11:33N 43°26' E 004°53'0 0.0
2015-Jul-23 09:32N 43°26' E 004°53'0 0.0
2015-Jul-23 08:23N 43°26' E 004°53'2 2.4
2015-Jul-23 07:33N 43°24' E 004°55'1 1.4
2015-Jul-23 06:31N 43°24' E 004°57'0 0.0
2015-Jul-23 05:31N 43°24' E 004°57'0 0.0
2015-Jul-23 04:31N 43°24' E 004°57'0 0.0
2015-Jul-23 03:31N 43°24' E 004°57'0 0.0
2015-Jul-23 02:31N 43°24' E 004°57'0 0.0
2015-Jul-23 01:31N 43°24' E 004°57'0 0.0
2015-Jul-23 00:31N 43°24' E 004°57'0 0.0
2015-Jul-22 23:31N 43°24' E 004°57'0 0.0
2015-Jul-22 22:31N 43°24' E 004°57'0 0.0
2015-Jul-22 21:31N 43°24' E 004°57'0 0.0
2015-Jul-22 20:31N 43°24' E 004°57'0 0.1
2015-Jul-22 19:31N 43°24' E 004°57'0 0.0
2015-Jul-22 18:33N 43°24' E 004°57'0 0.1
2015-Jul-22 17:32N 43°24' E 004°57'0 0.0
2015-Jul-22 16:32N 43°24' E 004°57'0 0.0
2015-Jul-22 15:32N 43°24' E 004°57'0 0.0
2015-Jul-22 14:32N 43°24' E 004°57'0 0.0
2015-Jul-22 13:32N 43°24' E 004°57'0 0.0
2015-Jul-22 12:32N 43°24' E 004°57'0 0.0
2015-Jul-22 11:32N 43°24' E 004°57'0 0.0
2015-Jul-22 10:32N 43°24' E 004°57'0 0.0
2015-Jul-22 09:32N 43°24' E 004°57'0 0.0
2015-Jul-22 08:32N 43°24' E 004°57'0 0.0
2015-Jul-22 07:29N 43°24' E 004°57'0 0.0
2015-Jul-22 06:32N 43°24' E 004°57'0 0.0
2015-Jul-22 05:32N 43°24' E 004°57'0 0.0
2015-Jul-22 04:32N 43°24' E 004°57'0 0.0
2015-Jul-22 03:32N 43°24' E 004°57'0 0.0
2015-Jul-22 02:32N 43°24' E 004°57'0 0.0
2015-Jul-22 01:32N 43°24' E 004°57'0 0.0
2015-Jul-22 00:32N 43°24' E 004°57'0 0.0
2015-Jul-21 23:32N 43°24' E 004°57'0 0.0
2015-Jul-21 22:32N 43°24' E 004°57'0 0.0
2015-Jul-21 21:32N 43°24' E 004°57'0 0.0
2015-Jul-21 20:32N 43°24' E 004°57'0 0.0
2015-Jul-21 19:32N 43°24' E 004°57'0 0.1
2015-Jul-21 18:32N 43°24' E 004°57'0 0.0
2015-Jul-21 17:32N 43°24' E 004°57'0 0.0
2015-Jul-21 16:32N 43°24' E 004°57'0 0.0
2015-Jul-21 15:32N 43°24' E 004°57'0 0.0
2015-Jul-21 14:32N 43°24' E 004°57'0 0.0
2015-Jul-21 13:32N 43°24' E 004°57'0 0.0
2015-Jul-21 12:32N 43°24' E 004°57'0 0.0
2015-Jul-21 11:32N 43°24' E 004°57'0 0.0
2015-Jul-21 10:29N 43°24' E 004°57'0 0.0
2015-Jul-21 09:32N 43°24' E 004°57'0 0.1
2015-Jul-21 08:32N 43°24' E 004°57'0 0.1
2015-Jul-21 07:32N 43°24' E 004°57'0 0.0
2015-Jul-21 06:32N 43°24' E 004°57'0 0.0
2015-Jul-21 05:29N 43°24' E 004°57'0 0.0
2015-Jul-21 04:32N 43°24' E 004°57'0 0.1
2015-Jul-21 03:32N 43°24' E 004°57'0 0.0
2015-Jul-21 02:32N 43°24' E 004°57'0 0.0
2015-Jul-21 01:32N 43°24' E 004°57'0 0.0
2015-Jul-21 00:32N 43°24' E 004°57'0 0.0
2015-Jul-20 23:32N 43°24' E 004°57'0 0.0
2015-Jul-20 22:32N 43°24' E 004°57'0 0.0
2015-Jul-20 21:32N 43°24' E 004°57'0 0.0
2015-Jul-20 20:29N 43°24' E 004°57'0 0.0
2015-Jul-20 19:32N 43°24' E 004°57'0 0.0
2015-Jul-20 18:29N 43°24' E 004°57'0 0.0
2015-Jul-20 17:32N 43°24' E 004°57'2 2.1
2015-Jul-20 16:34N 43°22' E 004°58'10 9.5
2015-Jul-20 15:33N 43°13' E 005°02'10 9.6
2015-Jul-20 14:33N 43°05' E 004°54'  
Track history (hours):
 
Tides and Currents Weather Stations Pressure Air Temp Water Temp Dewpoint Dewpoint Depression Visibility Wind Speed Wind Dir Waves Ship Positions

Bosporus

Last reported at 2015-Jul-29 02:29 UTC. Time now 2015-Jul-29 02:39 UTC.
Position N 43°26' E 004°53'.

Length 100 m; draft 4.2 m.

Type: Cargo ship. MMSI: 304010802.

Date/timePositionNaut miles runAvg speedWind from/ knotsBaromVisibWave heightAir tempDewpointWater temp
2015-Jul-29 02:29N 43°26' E 004°53'0 0.0
2015-Jul-29 01:32N 43°26' E 004°53'0 0.0
2015-Jul-29 00:32N 43°26' E 004°53'0 0.0
2015-Jul-28 23:29N 43°26' E 004°53'0 0.0
2015-Jul-28 22:32N 43°26' E 004°53'0 0.0
2015-Jul-28 21:23N 43°26' E 004°53'0 0.0
2015-Jul-28 20:17N 43°26' E 004°53'0 0.0
2015-Jul-28 19:29N 43°26' E 004°53'0 0.0
2015-Jul-28 18:30N 43°26' E 004°53'0 0.0
2015-Jul-28 17:32N 43°26' E 004°53'0 0.0
2015-Jul-28 16:32N 43°26' E 004°53'0 0.0
2015-Jul-28 15:26N 43°26' E 004°53'0 0.0
2015-Jul-28 14:29N 43°26' E 004°53'0 0.0
2015-Jul-28 13:32N 43°26' E 004°53'0 0.0
2015-Jul-28 12:32N 43°26' E 004°53'0 0.0
2015-Jul-28 11:32N 43°26' E 004°53'0 0.0
2015-Jul-28 10:29N 43°26' E 004°53'0 0.0
2015-Jul-28 09:33N 43°26' E 004°53'7 7.4
2015-Jul-28 08:33N 43°19' E 004°59'7 6.7
2015-Jul-28 07:33N 43°15' E 004°51'10 9.6
2015-Jul-28 06:33N 43°13' E 004°38'1010.1
2015-Jul-28 05:32N 43°10' E 004°25'  
2015-Jul-25 05:29N 43°11' E 004°28'8 9.1
2015-Jul-25 04:33N 43°14' E 004°39'9 9.2
2015-Jul-25 03:34N 43°16' E 004°51'8 7.9
2015-Jul-25 02:33N 43°24' E 004°54'2 1.5
2015-Jul-25 01:26N 43°26' E 004°53'0 0.0
2015-Jul-25 00:29N 43°26' E 004°53'0 0.0
2015-Jul-24 23:32N 43°26' E 004°53'0 0.0
2015-Jul-24 22:26N 43°26' E 004°53'0 0.0
2015-Jul-24 21:32N 43°26' E 004°53'0 0.0
2015-Jul-24 20:26N 43°26' E 004°53'0 0.0
2015-Jul-24 19:33N 43°26' E 004°53'0 0.0
2015-Jul-24 17:16N 43°26' E 004°53'0 0.0
2015-Jul-24 16:31N 43°26' E 004°53'0 0.0
2015-Jul-24 15:31N 43°26' E 004°53'0 0.0
2015-Jul-24 14:28N 43°26' E 004°53'0 0.0
2015-Jul-24 13:28N 43°26' E 004°53'0 0.0
2015-Jul-24 12:31N 43°26' E 004°53'0 0.0
2015-Jul-24 11:31N 43°26' E 004°53'0 0.0
2015-Jul-24 10:28N 43°26' E 004°53'0 0.0
2015-Jul-24 09:31N 43°26' E 004°53'0 0.0
2015-Jul-24 08:28N 43°26' E 004°53'0 0.0
2015-Jul-24 07:31N 43°26' E 004°53'0 0.0
2015-Jul-24 06:31N 43°26' E 004°53'0 0.0
2015-Jul-24 05:31N 43°26' E 004°53'0 0.0
2015-Jul-24 04:31N 43°26' E 004°53'0 0.0
2015-Jul-24 03:28N 43°26' E 004°53'0 0.0
2015-Jul-24 02:28N 43°26' E 004°53'0 0.0
2015-Jul-24 01:28N 43°26' E 004°53'0 0.0
2015-Jul-24 00:16N 43°26' E 004°53'0 0.0
2015-Jul-23 23:28N 43°26' E 004°53'0 0.0
2015-Jul-23 22:31N 43°26' E 004°53'0 0.0
2015-Jul-23 21:28N 43°26' E 004°53'0 0.0
2015-Jul-23 20:33N 43°26' E 004°53'0 0.0
2015-Jul-23 19:33N 43°26' E 004°53'0 0.0
2015-Jul-23 18:33N 43°26' E 004°53'0 0.0
2015-Jul-23 17:32N 43°26' E 004°53'0 0.0
2015-Jul-23 16:20N 43°26' E 004°53'0 0.0
2015-Jul-23 15:32N 43°26' E 004°53'0 0.0
2015-Jul-23 14:32N 43°26' E 004°53'0 0.0
2015-Jul-23 13:32N 43°26' E 004°53'0 0.0
2015-Jul-23 12:29N 43°26' E 004°53'0 0.0
2015-Jul-23 11:33N 43°26' E 004°53'0 0.0
2015-Jul-23 09:32N 43°26' E 004°53'0 0.0
2015-Jul-23 08:23N 43°26' E 004°53'2 2.4
2015-Jul-23 07:33N 43°24' E 004°55'1 1.4
2015-Jul-23 06:31N 43°24' E 004°57'0 0.0
2015-Jul-23 05:31N 43°24' E 004°57'0 0.0
2015-Jul-23 04:31N 43°24' E 004°57'0 0.0
2015-Jul-23 03:31N 43°24' E 004°57'0 0.0
2015-Jul-23 02:31N 43°24' E 004°57'0 0.0
2015-Jul-23 01:31N 43°24' E 004°57'0 0.0
2015-Jul-23 00:31N 43°24' E 004°57'0 0.0
2015-Jul-22 23:31N 43°24' E 004°57'0 0.0
2015-Jul-22 22:31N 43°24' E 004°57'0 0.0
2015-Jul-22 21:31N 43°24' E 004°57'0 0.0
2015-Jul-22 20:31N 43°24' E 004°57'0 0.1
2015-Jul-22 19:31N 43°24' E 004°57'0 0.0
2015-Jul-22 18:33N 43°24' E 004°57'0 0.1
2015-Jul-22 17:32N 43°24' E 004°57'0 0.0
2015-Jul-22 16:32N 43°24' E 004°57'0 0.0
2015-Jul-22 15:32N 43°24' E 004°57'0 0.0
2015-Jul-22 14:32N 43°24' E 004°57'0 0.0
2015-Jul-22 13:32N 43°24' E 004°57'0 0.0
2015-Jul-22 12:32N 43°24' E 004°57'0 0.0
2015-Jul-22 11:32N 43°24' E 004°57'0 0.0
2015-Jul-22 10:32N 43°24' E 004°57'0 0.0
2015-Jul-22 09:32N 43°24' E 004°57'0 0.0
2015-Jul-22 08:32N 43°24' E 004°57'0 0.0
2015-Jul-22 07:29N 43°24' E 004°57'0 0.0
2015-Jul-22 06:32N 43°24' E 004°57'0 0.0
2015-Jul-22 05:32N 43°24' E 004°57'0 0.0
2015-Jul-22 04:32N 43°24' E 004°57'0 0.0
2015-Jul-22 03:32N 43°24' E 004°57'0 0.0
2015-Jul-22 02:32N 43°24' E 004°57'0 0.0
2015-Jul-22 01:32N 43°24' E 004°57'0 0.0
2015-Jul-22 00:32N 43°24' E 004°57'0 0.0
2015-Jul-21 23:32N 43°24' E 004°57'0 0.0
2015-Jul-21 22:32N 43°24' E 004°57'0 0.0
2015-Jul-21 21:32N 43°24' E 004°57'0 0.0
2015-Jul-21 20:32N 43°24' E 004°57'0 0.0
2015-Jul-21 19:32N 43°24' E 004°57'0 0.1
2015-Jul-21 18:32N 43°24' E 004°57'0 0.0
2015-Jul-21 17:32N 43°24' E 004°57'0 0.0
2015-Jul-21 16:32N 43°24' E 004°57'0 0.0
2015-Jul-21 15:32N 43°24' E 004°57'0 0.0
2015-Jul-21 14:32N 43°24' E 004°57'0 0.0
2015-Jul-21 13:32N 43°24' E 004°57'0 0.0
2015-Jul-21 12:32N 43°24' E 004°57'0 0.0
2015-Jul-21 11:32N 43°24' E 004°57'0 0.0
2015-Jul-21 10:29N 43°24' E 004°57'0 0.0
2015-Jul-21 09:32N 43°24' E 004°57'0 0.1
2015-Jul-21 08:32N 43°24' E 004°57'0 0.1
2015-Jul-21 07:32N 43°24' E 004°57'0 0.0
2015-Jul-21 06:32N 43°24' E 004°57'0 0.0
2015-Jul-21 05:29N 43°24' E 004°57'0 0.0
2015-Jul-21 04:32N 43°24' E 004°57'0 0.1
2015-Jul-21 03:32N 43°24' E 004°57'0 0.0
2015-Jul-21 02:32N 43°24' E 004°57'0 0.0
2015-Jul-21 01:32N 43°24' E 004°57'0 0.0
2015-Jul-21 00:32N 43°24' E 004°57'0 0.0
2015-Jul-20 23:32N 43°24' E 004°57'0 0.0
2015-Jul-20 22:32N 43°24' E 004°57'0 0.0
2015-Jul-20 21:32N 43°24' E 004°57'0 0.0
2015-Jul-20 20:29N 43°24' E 004°57'0 0.0
2015-Jul-20 19:32N 43°24' E 004°57'0 0.0
2015-Jul-20 18:29N 43°24' E 004°57'0 0.0
2015-Jul-20 17:32N 43°24' E 004°57'2 2.1
2015-Jul-20 16:34N 43°22' E 004°58'10 9.5
2015-Jul-20 15:33N 43°13' E 005°02'10 9.6
2015-Jul-20 14:33N 43°05' E 004°54'  

Dump ship's entire track history